sensor_id;sensor_type;location;lat;lon;timestamp;temperature;humidity
8778;DHT22;4425;50.872;4.712;2022-12-29T00:01:42;11.80;99.90
8778;DHT22;4425;50.872;4.712;2022-12-29T00:04:11;11.90;99.90
8778;DHT22;4425;50.872;4.712;2022-12-29T00:06:39;11.80;99.90
8778;DHT22;4425;50.872;4.712;2022-12-29T00:09:06;11.80;99.90
8778;DHT22;4425;50.872;4.712;2022-12-29T00:11:33;11.80;99.90
8778;DHT22;4425;50.872;4.712;2022-12-29T00:14:02;11.80;99.90
8778;DHT22;4425;50.872;4.712;2022-12-29T00:16:46;11.80;99.90
8778;DHT22;4425;50.872;4.712;2022-12-29T00:19:14;11.70;99.90
8778;DHT22;4425;50.872;4.712;2022-12-29T00:21:55;11.80;99.90
8778;DHT22;4425;50.872;4.712;2022-12-29T00:24:40;11.80;99.90
8778;DHT22;4425;50.872;4.712;2022-12-29T00:27:26;11.80;99.90
8778;DHT22;4425;50.872;4.712;2022-12-29T00:30:14;11.80;99.90
8778;DHT22;4425;50.872;4.712;2022-12-29T00:32:58;11.90;99.90
8778;DHT22;4425;50.872;4.712;2022-12-29T00:35:47;11.90;99.90
8778;DHT22;4425;50.872;4.712;2022-12-29T00:38:18;12.00;99.90
8778;DHT22;4425;50.872;4.712;2022-12-29T00:41:02;12.00;99.90
8778;DHT22;4425;50.872;4.712;2022-12-29T00:43:46;11.90;99.90
8778;DHT22;4425;50.872;4.712;2022-12-29T00:46:34;12.00;99.90
8778;DHT22;4425;50.872;4.712;2022-12-29T00:49:01;12.00;99.90
8778;DHT22;4425;50.872;4.712;2022-12-29T00:51:47;12.00;99.90
8778;DHT22;4425;50.872;4.712;2022-12-29T00:54:15;12.00;99.90
8778;DHT22;4425;50.872;4.712;2022-12-29T00:56:42;12.00;99.90
8778;DHT22;4425;50.872;4.712;2022-12-29T00:59:10;12.00;99.90
8778;DHT22;4425;50.872;4.712;2022-12-29T01:01:39;12.00;99.90
8778;DHT22;4425;50.872;4.712;2022-12-29T01:04:07;12.00;99.90
8778;DHT22;4425;50.872;4.712;2022-12-29T01:06:36;12.00;99.90
8778;DHT22;4425;50.872;4.712;2022-12-29T01:09:06;11.90;99.90
8778;DHT22;4425;50.872;4.712;2022-12-29T01:11:53;12.00;99.90
8778;DHT22;4425;50.872;4.712;2022-12-29T01:14:21;11.90;99.90
8778;DHT22;4425;50.872;4.712;2022-12-29T01:16:51;11.90;99.90
8778;DHT22;4425;50.872;4.712;2022-12-29T01:19:18;11.80;99.90
8778;DHT22;4425;50.872;4.712;2022-12-29T01:21:46;11.90;99.90
8778;DHT22;4425;50.872;4.712;2022-12-29T01:24:13;12.00;99.90
8778;DHT22;4425;50.872;4.712;2022-12-29T01:26:40;12.00;99.90
8778;DHT22;4425;50.872;4.712;2022-12-29T01:29:07;11.90;99.90
8778;DHT22;4425;50.872;4.712;2022-12-29T01:31:35;11.90;99.90
8778;DHT22;4425;50.872;4.712;2022-12-29T01:34:03;11.80;99.90
8778;DHT22;4425;50.872;4.712;2022-12-29T01:36:32;11.80;99.90
8778;DHT22;4425;50.872;4.712;2022-12-29T01:38:59;11.70;99.90
8778;DHT22;4425;50.872;4.712;2022-12-29T01:41:26;11.60;99.90
8778;DHT22;4425;50.872;4.712;2022-12-29T01:43:55;11.60;99.90
8778;DHT22;4425;50.872;4.712;2022-12-29T01:46:29;11.50;99.90
8778;DHT22;4425;50.872;4.712;2022-12-29T01:49:08;11.60;99.90
8778;DHT22;4425;50.872;4.712;2022-12-29T01:51:40;11.50;99.90
8778;DHT22;4425;50.872;4.712;2022-12-29T01:54:10;11.40;99.90
8778;DHT22;4425;50.872;4.712;2022-12-29T01:56:38;11.40;99.90
8778;DHT22;4425;50.872;4.712;2022-12-29T01:59:08;11.30;99.90
8778;DHT22;4425;50.872;4.712;2022-12-29T02:01:37;11.30;99.90
8778;DHT22;4425;50.872;4.712;2022-12-29T02:04:06;11.20;99.90
8778;DHT22;4425;50.872;4.712;2022-12-29T02:06:38;11.10;99.90
8778;DHT22;4425;50.872;4.712;2022-12-29T02:09:08;11.10;99.90
8778;DHT22;4425;50.872;4.712;2022-12-29T02:11:35;11.10;99.90
8778;DHT22;4425;50.872;4.712;2022-12-29T02:14:08;11.10;99.90
8778;DHT22;4425;50.872;4.712;2022-12-29T02:16:44;11.10;99.90
8778;DHT22;4425;50.872;4.712;2022-12-29T02:22:22;11.00;99.90
8778;DHT22;4425;50.872;4.712;2022-12-29T02:28:13;10.90;99.90
8778;DHT22;4425;50.872;4.712;2022-12-29T02:30:57;10.90;99.90
8778;DHT22;4425;50.872;4.712;2022-12-29T02:33:40;11.00;99.90
8778;DHT22;4425;50.872;4.712;2022-12-29T02:36:15;10.90;99.90
8778;DHT22;4425;50.872;4.712;2022-12-29T02:38:53;11.00;99.90
8778;DHT22;4425;50.872;4.712;2022-12-29T02:41:27;11.00;99.90
8778;DHT22;4425;50.872;4.712;2022-12-29T02:44:04;11.10;99.90
8778;DHT22;4425;50.872;4.712;2022-12-29T02:46:41;11.10;99.90
8778;DHT22;4425;50.872;4.712;2022-12-29T02:49:13;11.10;99.90
8778;DHT22;4425;50.872;4.712;2022-12-29T02:51:47;11.10;99.90
8778;DHT22;4425;50.872;4.712;2022-12-29T02:54:18;11.10;99.90
8778;DHT22;4425;50.872;4.712;2022-12-29T02:57:03;11.10;99.90
8778;DHT22;4425;50.872;4.712;2022-12-29T02:59:31;11.00;99.90
8778;DHT22;4425;50.872;4.712;2022-12-29T03:02:21;11.00;99.90
8778;DHT22;4425;50.872;4.712;2022-12-29T03:07:46;11.10;99.90
8778;DHT22;4425;50.872;4.712;2022-12-29T03:10:25;10.90;99.90
8778;DHT22;4425;50.872;4.712;2022-12-29T03:13:02;10.80;99.90
8778;DHT22;4425;50.872;4.712;2022-12-29T03:15:55;10.60;99.90
8778;DHT22;4425;50.872;4.712;2022-12-29T03:18:37;10.40;99.90
8778;DHT22;4425;50.872;4.712;2022-12-29T03:21:10;10.30;99.90
8778;DHT22;4425;50.872;4.712;2022-12-29T03:23:41;10.20;99.90
8778;DHT22;4425;50.872;4.712;2022-12-29T03:26:11;10.20;99.90
8778;DHT22;4425;50.872;4.712;2022-12-29T03:28:44;10.20;99.90
8778;DHT22;4425;50.872;4.712;2022-12-29T03:31:13;10.30;99.90
8778;DHT22;4425;50.872;4.712;2022-12-29T03:33:45;10.20;99.90
8778;DHT22;4425;50.872;4.712;2022-12-29T03:36:17;10.20;99.90
8778;DHT22;4425;50.872;4.712;2022-12-29T03:38:48;10.20;99.90
8778;DHT22;4425;50.872;4.712;2022-12-29T03:41:20;10.20;99.90
8778;DHT22;4425;50.872;4.712;2022-12-29T03:43:49;10.20;99.90
8778;DHT22;4425;50.872;4.712;2022-12-29T03:46:16;10.20;99.90
8778;DHT22;4425;50.872;4.712;2022-12-29T03:48:44;10.30;99.90
8778;DHT22;4425;50.872;4.712;2022-12-29T03:51:11;10.30;99.90
8778;DHT22;4425;50.872;4.712;2022-12-29T03:53:38;10.20;99.90
8778;DHT22;4425;50.872;4.712;2022-12-29T03:56:06;10.20;99.90
8778;DHT22;4425;50.872;4.712;2022-12-29T03:58:33;10.30;99.90
8778;DHT22;4425;50.872;4.712;2022-12-29T04:01:00;10.30;99.90
8778;DHT22;4425;50.872;4.712;2022-12-29T04:03:28;10.30;99.90
8778;DHT22;4425;50.872;4.712;2022-12-29T04:05:56;10.40;99.90
8778;DHT22;4425;50.872;4.712;2022-12-29T04:08:23;10.40;99.90
8778;DHT22;4425;50.872;4.712;2022-12-29T04:10:50;10.40;99.90
8778;DHT22;4425;50.872;4.712;2022-12-29T04:13:17;10.50;99.90
8778;DHT22;4425;50.872;4.712;2022-12-29T04:15:44;10.50;99.90
8778;DHT22;4425;50.872;4.712;2022-12-29T04:18:12;10.50;99.90
8778;DHT22;4425;50.872;4.712;2022-12-29T04:20:39;10.50;99.90
8778;DHT22;4425;50.872;4.712;2022-12-29T04:23:34;10.50;99.90
8778;DHT22;4425;50.872;4.712;2022-12-29T04:26:03;10.40;99.90
8778;DHT22;4425;50.872;4.712;2022-12-29T04:28:32;10.40;99.90
8778;DHT22;4425;50.872;4.712;2022-12-29T04:30:59;10.40;99.90
8778;DHT22;4425;50.872;4.712;2022-12-29T04:33:26;10.30;99.90
8778;DHT22;4425;50.872;4.712;2022-12-29T04:35:53;10.20;99.90
8778;DHT22;4425;50.872;4.712;2022-12-29T04:38:21;10.20;99.90
8778;DHT22;4425;50.872;4.712;2022-12-29T04:40:51;10.20;99.90
8778;DHT22;4425;50.872;4.712;2022-12-29T04:43:18;10.20;99.90
8778;DHT22;4425;50.872;4.712;2022-12-29T04:45:47;10.20;99.90
8778;DHT22;4425;50.872;4.712;2022-12-29T04:48:14;10.20;99.90
8778;DHT22;4425;50.872;4.712;2022-12-29T04:50:41;10.20;99.90
8778;DHT22;4425;50.872;4.712;2022-12-29T04:53:08;10.30;99.90
8778;DHT22;4425;50.872;4.712;2022-12-29T04:55:36;10.30;99.90
8778;DHT22;4425;50.872;4.712;2022-12-29T04:58:04;10.30;99.90
8778;DHT22;4425;50.872;4.712;2022-12-29T05:00:31;10.40;99.90
8778;DHT22;4425;50.872;4.712;2022-12-29T05:02:59;10.50;99.90
8778;DHT22;4425;50.872;4.712;2022-12-29T05:05:27;10.50;99.90
8778;DHT22;4425;50.872;4.712;2022-12-29T05:07:54;10.70;99.90
8778;DHT22;4425;50.872;4.712;2022-12-29T05:10:22;10.70;99.90
8778;DHT22;4425;50.872;4.712;2022-12-29T05:12:49;10.80;99.90
8778;DHT22;4425;50.872;4.712;2022-12-29T05:15:18;10.80;99.90
8778;DHT22;4425;50.872;4.712;2022-12-29T05:17:45;10.80;99.90
8778;DHT22;4425;50.872;4.712;2022-12-29T05:20:12;10.90;99.90
8778;DHT22;4425;50.872;4.712;2022-12-29T05:22:40;10.90;99.90
8778;DHT22;4425;50.872;4.712;2022-12-29T05:25:08;10.90;99.90
8778;DHT22;4425;50.872;4.712;2022-12-29T05:27:36;10.90;99.90
8778;DHT22;4425;50.872;4.712;2022-12-29T05:30:03;10.90;99.90
8778;DHT22;4425;50.872;4.712;2022-12-29T05:32:34;10.90;99.90
8778;DHT22;4425;50.872;4.712;2022-12-29T05:35:02;10.90;99.90
8778;DHT22;4425;50.872;4.712;2022-12-29T05:37:29;10.90;99.90
8778;DHT22;4425;50.872;4.712;2022-12-29T05:39:55;10.80;99.90
8778;DHT22;4425;50.872;4.712;2022-12-29T05:42:22;10.80;99.90
8778;DHT22;4425;50.872;4.712;2022-12-29T05:44:49;10.80;99.90
8778;DHT22;4425;50.872;4.712;2022-12-29T05:47:19;10.80;99.90
8778;DHT22;4425;50.872;4.712;2022-12-29T05:49:47;10.80;99.90
8778;DHT22;4425;50.872;4.712;2022-12-29T05:52:14;10.90;99.90
8778;DHT22;4425;50.872;4.712;2022-12-29T05:54:41;10.90;99.90
8778;DHT22;4425;50.872;4.712;2022-12-29T05:57:08;11.00;99.90
8778;DHT22;4425;50.872;4.712;2022-12-29T05:59:36;11.00;99.90
8778;DHT22;4425;50.872;4.712;2022-12-29T06:02:02;11.00;99.90
8778;DHT22;4425;50.872;4.712;2022-12-29T06:04:29;11.00;99.90
8778;DHT22;4425;50.872;4.712;2022-12-29T06:07:02;11.00;99.90
8778;DHT22;4425;50.872;4.712;2022-12-29T06:09:29;11.00;99.90
8778;DHT22;4425;50.872;4.712;2022-12-29T06:11:56;10.90;99.90
8778;DHT22;4425;50.872;4.712;2022-12-29T06:14:23;10.90;99.90
8778;DHT22;4425;50.872;4.712;2022-12-29T06:16:50;10.80;99.90
8778;DHT22;4425;50.872;4.712;2022-12-29T06:19:18;10.80;99.90
8778;DHT22;4425;50.872;4.712;2022-12-29T06:21:45;10.90;99.90
8778;DHT22;4425;50.872;4.712;2022-12-29T06:24:13;10.90;99.90
8778;DHT22;4425;50.872;4.712;2022-12-29T06:26:40;10.90;99.90
8778;DHT22;4425;50.872;4.712;2022-12-29T06:29:08;10.80;99.90
8778;DHT22;4425;50.872;4.712;2022-12-29T06:31:35;10.90;99.90
8778;DHT22;4425;50.872;4.712;2022-12-29T06:34:02;10.90;99.90
8778;DHT22;4425;50.872;4.712;2022-12-29T06:36:29;10.90;99.90
8778;DHT22;4425;50.872;4.712;2022-12-29T06:38:56;10.80;99.90
8778;DHT22;4425;50.872;4.712;2022-12-29T06:41:24;10.80;99.90
8778;DHT22;4425;50.872;4.712;2022-12-29T06:43:51;10.90;99.90
8778;DHT22;4425;50.872;4.712;2022-12-29T06:46:18;10.80;99.90
8778;DHT22;4425;50.872;4.712;2022-12-29T06:48:45;10.80;99.90
8778;DHT22;4425;50.872;4.712;2022-12-29T06:51:12;10.90;99.90
8778;DHT22;4425;50.872;4.712;2022-12-29T06:53:40;10.80;99.90
8778;DHT22;4425;50.872;4.712;2022-12-29T06:56:07;10.90;99.90
8778;DHT22;4425;50.872;4.712;2022-12-29T06:58:36;11.00;99.90
8778;DHT22;4425;50.872;4.712;2022-12-29T07:01:03;11.00;99.90
8778;DHT22;4425;50.872;4.712;2022-12-29T07:03:31;11.00;99.90
8778;DHT22;4425;50.872;4.712;2022-12-29T07:05:59;11.10;99.90
8778;DHT22;4425;50.872;4.712;2022-12-29T07:08:26;11.10;99.90
8778;DHT22;4425;50.872;4.712;2022-12-29T07:10:55;11.10;99.90
8778;DHT22;4425;50.872;4.712;2022-12-29T07:13:22;11.00;99.90
8778;DHT22;4425;50.872;4.712;2022-12-29T07:15:50;11.00;99.90
8778;DHT22;4425;50.872;4.712;2022-12-29T07:18:18;11.00;99.90
8778;DHT22;4425;50.872;4.712;2022-12-29T07:20:45;11.00;99.90
8778;DHT22;4425;50.872;4.712;2022-12-29T07:23:12;11.00;99.90
8778;DHT22;4425;50.872;4.712;2022-12-29T07:25:39;11.00;99.90
8778;DHT22;4425;50.872;4.712;2022-12-29T07:28:07;11.00;99.90
8778;DHT22;4425;50.872;4.712;2022-12-29T07:30:36;10.90;99.90
8778;DHT22;4425;50.872;4.712;2022-12-29T07:33:05;10.90;99.90
8778;DHT22;4425;50.872;4.712;2022-12-29T07:35:33;10.90;99.90
8778;DHT22;4425;50.872;4.712;2022-12-29T07:38:00;10.90;99.90
8778;DHT22;4425;50.872;4.712;2022-12-29T07:40:28;10.90;99.90
8778;DHT22;4425;50.872;4.712;2022-12-29T07:42:55;11.00;99.90
8778;DHT22;4425;50.872;4.712;2022-12-29T07:45:21;10.90;99.90
8778;DHT22;4425;50.872;4.712;2022-12-29T07:47:50;10.90;99.90
8778;DHT22;4425;50.872;4.712;2022-12-29T07:50:19;10.90;99.90
8778;DHT22;4425;50.872;4.712;2022-12-29T07:52:46;10.80;99.90
8778;DHT22;4425;50.872;4.712;2022-12-29T07:55:13;10.80;99.90
8778;DHT22;4425;50.872;4.712;2022-12-29T07:57:40;10.80;99.90
8778;DHT22;4425;50.872;4.712;2022-12-29T08:00:09;10.80;99.90
8778;DHT22;4425;50.872;4.712;2022-12-29T08:02:37;10.90;99.90
8778;DHT22;4425;50.872;4.712;2022-12-29T08:05:06;10.90;99.90
8778;DHT22;4425;50.872;4.712;2022-12-29T08:07:34;10.90;99.90
8778;DHT22;4425;50.872;4.712;2022-12-29T08:10:06;10.90;99.90
8778;DHT22;4425;50.872;4.712;2022-12-29T08:12:42;10.90;99.90
8778;DHT22;4425;50.872;4.712;2022-12-29T08:15:12;10.80;99.90
8778;DHT22;4425;50.872;4.712;2022-12-29T08:17:47;10.90;99.90
8778;DHT22;4425;50.872;4.712;2022-12-29T08:20:17;10.90;99.90
8778;DHT22;4425;50.872;4.712;2022-12-29T08:22:50;10.90;99.90
8778;DHT22;4425;50.872;4.712;2022-12-29T08:25:19;10.90;99.90
8778;DHT22;4425;50.872;4.712;2022-12-29T08:27:46;10.80;99.90
8778;DHT22;4425;50.872;4.712;2022-12-29T08:30:26;10.80;99.90
8778;DHT22;4425;50.872;4.712;2022-12-29T08:33:00;10.90;99.90
8778;DHT22;4425;50.872;4.712;2022-12-29T08:35:41;10.80;99.90
8778;DHT22;4425;50.872;4.712;2022-12-29T08:38:14;10.80;99.90
8778;DHT22;4425;50.872;4.712;2022-12-29T08:40:50;10.80;99.90
8778;DHT22;4425;50.872;4.712;2022-12-29T08:43:32;10.80;99.90
8778;DHT22;4425;50.872;4.712;2022-12-29T08:46:05;10.80;99.90
8778;DHT22;4425;50.872;4.712;2022-12-29T08:48:49;10.90;99.90
8778;DHT22;4425;50.872;4.712;2022-12-29T08:51:46;10.90;99.90
8778;DHT22;4425;50.872;4.712;2022-12-29T08:54:19;10.90;99.90
8778;DHT22;4425;50.872;4.712;2022-12-29T08:56:47;10.90;99.90
8778;DHT22;4425;50.872;4.712;2022-12-29T08:59:29;10.90;99.90
8778;DHT22;4425;50.872;4.712;2022-12-29T09:02:13;10.90;99.90
8778;DHT22;4425;50.872;4.712;2022-12-29T09:04:44;10.90;99.90
8778;DHT22;4425;50.872;4.712;2022-12-29T09:07:14;10.90;99.90
8778;DHT22;4425;50.872;4.712;2022-12-29T09:09:45;10.90;99.90
8778;DHT22;4425;50.872;4.712;2022-12-29T09:12:13;10.90;99.90
8778;DHT22;4425;50.872;4.712;2022-12-29T09:14:45;10.90;99.90
8778;DHT22;4425;50.872;4.712;2022-12-29T09:17:31;11.00;99.90
8778;DHT22;4425;50.872;4.712;2022-12-29T09:20:10;10.90;99.90
8778;DHT22;4425;50.872;4.712;2022-12-29T09:22:39;10.90;99.90
8778;DHT22;4425;50.872;4.712;2022-12-29T09:25:09;10.90;99.90
8778;DHT22;4425;50.872;4.712;2022-12-29T09:27:37;10.90;99.90
8778;DHT22;4425;50.872;4.712;2022-12-29T09:30:09;10.90;99.90
8778;DHT22;4425;50.872;4.712;2022-12-29T09:32:37;10.90;99.90
8778;DHT22;4425;50.872;4.712;2022-12-29T09:35:05;11.10;99.90
8778;DHT22;4425;50.872;4.712;2022-12-29T09:37:33;11.10;99.90
8778;DHT22;4425;50.872;4.712;2022-12-29T09:40:09;11.20;99.90
8778;DHT22;4425;50.872;4.712;2022-12-29T09:43:19;11.20;99.90
8778;DHT22;4425;50.872;4.712;2022-12-29T09:45:55;11.30;99.90
8778;DHT22;4425;50.872;4.712;2022-12-29T09:48:30;11.40;99.90
8778;DHT22;4425;50.872;4.712;2022-12-29T09:51:02;11.30;99.90
8778;DHT22;4425;50.872;4.712;2022-12-29T09:53:33;11.20;99.90
8778;DHT22;4425;50.872;4.712;2022-12-29T09:56:13;11.30;99.90
8778;DHT22;4425;50.872;4.712;2022-12-29T09:58:48;11.40;99.90
8778;DHT22;4425;50.872;4.712;2022-12-29T10:01:26;11.50;99.90
8778;DHT22;4425;50.872;4.712;2022-12-29T10:03:56;11.40;99.90
8778;DHT22;4425;50.872;4.712;2022-12-29T10:06:28;11.50;99.90
8778;DHT22;4425;50.872;4.712;2022-12-29T10:09:03;11.60;99.90
8778;DHT22;4425;50.872;4.712;2022-12-29T10:11:50;11.60;99.90
8778;DHT22;4425;50.872;4.712;2022-12-29T10:14:33;11.60;99.90
8778;DHT22;4425;50.872;4.712;2022-12-29T10:17:23;11.60;99.90
8778;DHT22;4425;50.872;4.712;2022-12-29T10:20:11;11.60;99.90
8778;DHT22;4425;50.872;4.712;2022-12-29T10:23:04;11.50;99.90
8778;DHT22;4425;50.872;4.712;2022-12-29T10:25:38;11.40;99.90
8778;DHT22;4425;50.872;4.712;2022-12-29T10:28:17;11.40;99.90
8778;DHT22;4425;50.872;4.712;2022-12-29T10:30:47;11.40;99.90
8778;DHT22;4425;50.872;4.712;2022-12-29T10:33:18;11.40;99.90
8778;DHT22;4425;50.872;4.712;2022-12-29T10:35:50;11.30;99.90
8778;DHT22;4425;50.872;4.712;2022-12-29T10:38:22;11.30;99.90
8778;DHT22;4425;50.872;4.712;2022-12-29T10:40:58;11.30;99.90
8778;DHT22;4425;50.872;4.712;2022-12-29T10:43:29;11.40;99.90
8778;DHT22;4425;50.872;4.712;2022-12-29T10:46:01;11.40;99.90
8778;DHT22;4425;50.872;4.712;2022-12-29T10:48:33;11.40;99.90
8778;DHT22;4425;50.872;4.712;2022-12-29T10:51:05;11.50;99.90
8778;DHT22;4425;50.872;4.712;2022-12-29T10:53:40;11.50;99.90
8778;DHT22;4425;50.872;4.712;2022-12-29T10:56:21;11.60;99.90
8778;DHT22;4425;50.872;4.712;2022-12-29T10:58:54;11.70;99.90
8778;DHT22;4425;50.872;4.712;2022-12-29T11:01:31;11.70;99.90
8778;DHT22;4425;50.872;4.712;2022-12-29T11:04:03;11.70;99.90
8778;DHT22;4425;50.872;4.712;2022-12-29T11:06:31;11.70;99.90
8778;DHT22;4425;50.872;4.712;2022-12-29T11:09:02;11.60;99.90
8778;DHT22;4425;50.872;4.712;2022-12-29T11:11:36;11.60;99.90
8778;DHT22;4425;50.872;4.712;2022-12-29T11:14:12;11.70;99.90
8778;DHT22;4425;50.872;4.712;2022-12-29T11:16:41;11.70;99.90
8778;DHT22;4425;50.872;4.712;2022-12-29T11:19:29;11.70;99.90
8778;DHT22;4425;50.872;4.712;2022-12-29T11:22:13;11.70;99.90
8778;DHT22;4425;50.872;4.712;2022-12-29T11:24:44;11.80;99.90
8778;DHT22;4425;50.872;4.712;2022-12-29T11:27:15;11.80;99.90
8778;DHT22;4425;50.872;4.712;2022-12-29T11:29:44;11.80;99.90
8778;DHT22;4425;50.872;4.712;2022-12-29T11:32:16;11.90;99.90
8778;DHT22;4425;50.872;4.712;2022-12-29T11:34:52;11.90;99.90
8778;DHT22;4425;50.872;4.712;2022-12-29T11:37:28;11.90;99.90
8778;DHT22;4425;50.872;4.712;2022-12-29T11:39:59;11.90;99.90
8778;DHT22;4425;50.872;4.712;2022-12-29T11:42:34;12.00;99.90
8778;DHT22;4425;50.872;4.712;2022-12-29T11:45:13;11.90;99.90
8778;DHT22;4425;50.872;4.712;2022-12-29T11:47:43;11.90;99.90
8778;DHT22;4425;50.872;4.712;2022-12-29T11:50:18;11.80;99.90
8778;DHT22;4425;50.872;4.712;2022-12-29T11:52:50;11.70;99.90
8778;DHT22;4425;50.872;4.712;2022-12-29T11:55:26;11.60;99.90
8778;DHT22;4425;50.872;4.712;2022-12-29T11:57:55;11.60;99.90
8778;DHT22;4425;50.872;4.712;2022-12-29T12:00:39;11.70;99.90
8778;DHT22;4425;50.872;4.712;2022-12-29T12:03:13;11.60;99.90
8778;DHT22;4425;50.872;4.712;2022-12-29T12:05:45;11.50;99.90
8778;DHT22;4425;50.872;4.712;2022-12-29T12:08:21;11.50;99.90
8778;DHT22;4425;50.872;4.712;2022-12-29T12:10:54;11.60;99.90
8778;DHT22;4425;50.872;4.712;2022-12-29T12:13:29;11.60;99.90
8778;DHT22;4425;50.872;4.712;2022-12-29T12:16:04;11.50;99.90
8778;DHT22;4425;50.872;4.712;2022-12-29T12:18:38;11.40;99.90
8778;DHT22;4425;50.872;4.712;2022-12-29T12:21:23;11.30;99.90
8778;DHT22;4425;50.872;4.712;2022-12-29T12:24:05;11.40;99.90
8778;DHT22;4425;50.872;4.712;2022-12-29T12:26:43;11.40;99.90
8778;DHT22;4425;50.872;4.712;2022-12-29T12:29:20;11.50;99.90
8778;DHT22;4425;50.872;4.712;2022-12-29T12:31:56;11.50;99.90
8778;DHT22;4425;50.872;4.712;2022-12-29T12:34:27;11.40;99.90
8778;DHT22;4425;50.872;4.712;2022-12-29T12:39:54;11.40;99.90
8778;DHT22;4425;50.872;4.712;2022-12-29T12:42:38;11.40;99.90
8778;DHT22;4425;50.872;4.712;2022-12-29T12:45:31;11.40;99.90
8778;DHT22;4425;50.872;4.712;2022-12-29T12:48:11;11.40;99.90
8778;DHT22;4425;50.872;4.712;2022-12-29T12:50:52;11.30;99.90
8778;DHT22;4425;50.872;4.712;2022-12-29T12:53:41;11.30;99.90
8778;DHT22;4425;50.872;4.712;2022-12-29T12:56:24;11.30;99.90
8778;DHT22;4425;50.872;4.712;2022-12-29T12:58:58;11.30;99.90
8778;DHT22;4425;50.872;4.712;2022-12-29T13:01:37;11.30;99.90
8778;DHT22;4425;50.872;4.712;2022-12-29T13:07:25;11.40;99.90
8778;DHT22;4425;50.872;4.712;2022-12-29T13:10:23;11.40;99.90
8778;DHT22;4425;50.872;4.712;2022-12-29T13:13:05;11.40;99.90
8778;DHT22;4425;50.872;4.712;2022-12-29T13:15:43;11.40;99.90
8778;DHT22;4425;50.872;4.712;2022-12-29T13:18:25;11.50;99.90
8778;DHT22;4425;50.872;4.712;2022-12-29T13:21:02;11.60;99.90
8778;DHT22;4425;50.872;4.712;2022-12-29T13:23:39;11.60;99.90
8778;DHT22;4425;50.872;4.712;2022-12-29T13:26:12;11.50;99.90
8778;DHT22;4425;50.872;4.712;2022-12-29T13:28:51;11.40;99.90
8778;DHT22;4425;50.872;4.712;2022-12-29T13:31:29;11.40;99.90
8778;DHT22;4425;50.872;4.712;2022-12-29T13:34:10;11.30;99.90
8778;DHT22;4425;50.872;4.712;2022-12-29T13:36:44;11.40;99.90
8778;DHT22;4425;50.872;4.712;2022-12-29T13:39:30;11.30;99.90
8778;DHT22;4425;50.872;4.712;2022-12-29T13:42:09;11.40;99.90
8778;DHT22;4425;50.872;4.712;2022-12-29T13:44:44;11.30;99.90
8778;DHT22;4425;50.872;4.712;2022-12-29T13:47:20;11.20;99.90
8778;DHT22;4425;50.872;4.712;2022-12-29T13:49:48;11.10;99.90
8778;DHT22;4425;50.872;4.712;2022-12-29T13:52:24;11.10;99.90
8778;DHT22;4425;50.872;4.712;2022-12-29T13:55:06;11.10;99.90
8778;DHT22;4425;50.872;4.712;2022-12-29T13:57:45;10.90;99.90
8778;DHT22;4425;50.872;4.712;2022-12-29T14:00:33;10.80;99.90
8778;DHT22;4425;50.872;4.712;2022-12-29T14:03:31;10.80;99.90
8778;DHT22;4425;50.872;4.712;2022-12-29T14:06:22;10.80;99.90
8778;DHT22;4425;50.872;4.712;2022-12-29T14:08:53;10.80;99.90
8778;DHT22;4425;50.872;4.712;2022-12-29T14:11:31;10.80;99.90
8778;DHT22;4425;50.872;4.712;2022-12-29T14:14:11;10.70;99.90
8778;DHT22;4425;50.872;4.712;2022-12-29T14:16:43;10.70;99.90
8778;DHT22;4425;50.872;4.712;2022-12-29T14:19:20;10.60;99.90
8778;DHT22;4425;50.872;4.712;2022-12-29T14:21:54;10.50;99.90
8778;DHT22;4425;50.872;4.712;2022-12-29T14:24:41;10.50;99.90
8778;DHT22;4425;50.872;4.712;2022-12-29T14:27:54;10.40;99.90
8778;DHT22;4425;50.872;4.712;2022-12-29T14:30:46;10.30;99.90
8778;DHT22;4425;50.872;4.712;2022-12-29T14:33:17;10.30;99.90
8778;DHT22;4425;50.872;4.712;2022-12-29T14:35:48;10.30;99.90
8778;DHT22;4425;50.872;4.712;2022-12-29T14:38:23;10.30;99.90
8778;DHT22;4425;50.872;4.712;2022-12-29T14:41:23;10.30;99.90
8778;DHT22;4425;50.872;4.712;2022-12-29T14:43:57;10.40;99.90
8778;DHT22;4425;50.872;4.712;2022-12-29T14:46:25;10.50;99.90
8778;DHT22;4425;50.872;4.712;2022-12-29T14:49:16;10.50;99.90
8778;DHT22;4425;50.872;4.712;2022-12-29T14:51:45;10.60;99.90
8778;DHT22;4425;50.872;4.712;2022-12-29T14:57:29;10.70;99.90
8778;DHT22;4425;50.872;4.712;2022-12-29T15:03:03;10.60;99.90
8778;DHT22;4425;50.872;4.712;2022-12-29T15:05:35;10.60;99.90
8778;DHT22;4425;50.872;4.712;2022-12-29T15:08:04;10.60;99.90
8778;DHT22;4425;50.872;4.712;2022-12-29T15:10:36;10.60;99.90
8778;DHT22;4425;50.872;4.712;2022-12-29T15:13:10;10.60;99.90
8778;DHT22;4425;50.872;4.712;2022-12-29T15:15:42;10.60;99.90
8778;DHT22;4425;50.872;4.712;2022-12-29T15:18:18;10.70;99.90
8778;DHT22;4425;50.872;4.712;2022-12-29T15:20:51;10.80;99.90
8778;DHT22;4425;50.872;4.712;2022-12-29T15:23:21;10.70;99.90
8778;DHT22;4425;50.872;4.712;2022-12-29T15:25:53;10.70;99.90
8778;DHT22;4425;50.872;4.712;2022-12-29T15:28:22;10.70;99.90
8778;DHT22;4425;50.872;4.712;2022-12-29T15:30:56;10.70;99.90
8778;DHT22;4425;50.872;4.712;2022-12-29T15:33:40;10.60;99.90
8778;DHT22;4425;50.872;4.712;2022-12-29T15:36:12;10.40;99.90
8778;DHT22;4425;50.872;4.712;2022-12-29T15:38:42;10.00;99.90
8778;DHT22;4425;50.872;4.712;2022-12-29T15:41:29;9.70;99.90
8778;DHT22;4425;50.872;4.712;2022-12-29T15:44:21;9.50;99.90
8778;DHT22;4425;50.872;4.712;2022-12-29T15:46:55;9.40;99.90
8778;DHT22;4425;50.872;4.712;2022-12-29T15:49:24;9.20;99.90
8778;DHT22;4425;50.872;4.712;2022-12-29T15:51:52;9.20;99.90
8778;DHT22;4425;50.872;4.712;2022-12-29T15:54:21;9.00;99.90
8778;DHT22;4425;50.872;4.712;2022-12-29T15:56:49;9.00;99.90
8778;DHT22;4425;50.872;4.712;2022-12-29T15:59:24;9.00;99.90
8778;DHT22;4425;50.872;4.712;2022-12-29T16:01:54;9.00;99.90
8778;DHT22;4425;50.872;4.712;2022-12-29T16:04:21;8.90;99.90
8778;DHT22;4425;50.872;4.712;2022-12-29T16:06:56;8.90;99.90
8778;DHT22;4425;50.872;4.712;2022-12-29T16:09:31;8.90;99.90
8778;DHT22;4425;50.872;4.712;2022-12-29T16:12:00;8.80;99.90
8778;DHT22;4425;50.872;4.712;2022-12-29T16:14:32;8.80;99.90
8778;DHT22;4425;50.872;4.712;2022-12-29T16:17:03;8.80;99.90
8778;DHT22;4425;50.872;4.712;2022-12-29T16:19:34;8.80;99.90
8778;DHT22;4425;50.872;4.712;2022-12-29T16:22:09;8.70;99.90
8778;DHT22;4425;50.872;4.712;2022-12-29T16:24:45;8.70;99.90
8778;DHT22;4425;50.872;4.712;2022-12-29T16:27:21;8.70;99.90
8778;DHT22;4425;50.872;4.712;2022-12-29T16:29:53;8.70;99.90
8778;DHT22;4425;50.872;4.712;2022-12-29T16:32:30;8.70;99.90
8778;DHT22;4425;50.872;4.712;2022-12-29T16:35:11;8.60;99.90
8778;DHT22;4425;50.872;4.712;2022-12-29T16:37:39;8.60;99.90
8778;DHT22;4425;50.872;4.712;2022-12-29T16:40:28;8.50;99.90
8778;DHT22;4425;50.872;4.712;2022-12-29T16:42:58;8.40;99.90
8778;DHT22;4425;50.872;4.712;2022-12-29T16:48:44;8.40;99.90
8778;DHT22;4425;50.872;4.712;2022-12-29T16:51:17;8.30;99.90
8778;DHT22;4425;50.872;4.712;2022-12-29T16:53:51;8.30;99.90
8778;DHT22;4425;50.872;4.712;2022-12-29T16:56:24;8.30;99.90
8778;DHT22;4425;50.872;4.712;2022-12-29T16:59:01;8.30;99.90
8778;DHT22;4425;50.872;4.712;2022-12-29T17:01:29;8.30;99.90
8778;DHT22;4425;50.872;4.712;2022-12-29T17:04:00;8.30;99.90
8778;DHT22;4425;50.872;4.712;2022-12-29T17:06:31;8.30;99.90